createdAt,value
2018-06-02T00:00:15.069Z,20.32
2018-06-02T00:01:15.093Z,20.31
2018-06-02T00:03:08.037Z,20.41
2018-06-02T00:04:08.038Z,20.32
2018-06-02T00:06:00.988Z,20.32
2018-06-02T00:07:01.001Z,20.29
2018-06-02T00:08:53.911Z,20.21
2018-06-02T00:09:53.913Z,20.21
2018-06-02T00:11:46.829Z,20.28
2018-06-02T00:12:46.859Z,20.28
2018-06-02T00:14:39.791Z,20.32
2018-06-02T00:15:39.799Z,20.35
2018-06-02T00:17:32.711Z,20.32
2018-06-02T00:18:32.746Z,20.38
2018-06-02T00:20:25.675Z,20.41
2018-06-02T00:21:25.678Z,20.41
2018-06-02T00:23:18.759Z,20.42
2018-06-02T00:24:18.779Z,20.33
2018-06-02T00:26:11.681Z,20.18
2018-06-02T00:27:11.713Z,20.26
2018-06-02T00:29:04.643Z,20.35
2018-06-02T00:30:04.650Z,20.26
2018-06-02T00:31:57.566Z,20.28
2018-06-02T00:32:57.591Z,20.16
2018-06-02T00:34:50.529Z,20.16
2018-06-02T00:35:50.535Z,20.24
2018-06-02T00:37:43.449Z,20.39
2018-06-02T00:38:43.508Z,20.39
2018-06-02T00:40:36.410Z,20.31
2018-06-02T00:41:36.419Z,20.28
2018-06-02T00:43:29.349Z,20.21
2018-06-02T00:44:29.360Z,20.14
2018-06-02T00:46:22.275Z,20.14
2018-06-02T00:47:22.298Z,20.02
2018-06-02T00:49:15.233Z,20.16
2018-06-02T00:50:15.242Z,20.13
2018-06-02T00:52:08.152Z,20.11
2018-06-02T00:53:08.181Z,20.10
2018-06-02T00:55:01.114Z,20.17
2018-06-02T00:56:01.124Z,20.17
2018-06-02T00:57:54.062Z,20.08
2018-06-02T00:58:54.062Z,20.16
2018-06-02T01:00:46.997Z,20.11
2018-06-02T01:01:46.999Z,19.98
2018-06-02T01:03:39.912Z,20.13
2018-06-02T01:04:39.938Z,20.05
2018-06-02T01:06:32.874Z,20.13
2018-06-02T01:07:32.894Z,20.14
2018-06-02T01:09:25.810Z,20.16
2018-06-02T01:10:25.816Z,20.10
2018-06-02T01:12:18.731Z,19.95
2018-06-02T01:13:18.762Z,19.95
2018-06-02T01:15:11.692Z,19.81
2018-06-02T01:16:11.694Z,19.83
2018-06-02T01:18:04.614Z,19.87
2018-06-02T01:19:04.640Z,19.92
2018-06-02T01:20:57.729Z,19.88
2018-06-02T01:21:57.734Z,19.58
2018-06-02T01:23:50.649Z,19.76
2018-06-02T01:24:50.679Z,19.66
2018-06-02T01:26:43.608Z,19.66
2018-06-02T01:27:43.622Z,19.55
2018-06-02T01:29:36.527Z,19.50
2018-06-02T01:30:36.552Z,19.37
2018-06-02T01:32:29.489Z,19.32
2018-06-02T01:33:29.489Z,19.40
2018-06-02T01:35:22.426Z,19.43
2018-06-02T01:36:22.428Z,19.51
2018-06-02T01:38:15.343Z,19.50
2018-06-02T01:39:15.364Z,19.54
2018-06-02T01:41:08.303Z,19.54
2018-06-02T01:42:08.312Z,19.54
2018-06-02T01:44:01.220Z,19.46
2018-06-02T01:45:01.243Z,19.44
2018-06-02T01:46:54.183Z,19.36
2018-06-02T01:47:54.179Z,19.40
2018-06-02T01:49:47.095Z,19.23
2018-06-02T01:50:47.118Z,19.33
2018-06-02T01:52:40.056Z,19.28
2018-06-02T01:53:40.063Z,19.29
2018-06-02T01:55:32.993Z,19.26
2018-06-02T01:56:33.003Z,19.28
2018-06-02T01:58:25.917Z,19.28
2018-06-02T01:59:25.941Z,19.28
2018-06-02T02:01:18.876Z,19.33
2018-06-02T02:02:18.879Z,19.28
2018-06-02T02:04:11.797Z,19.31
2018-06-02T02:05:11.816Z,19.31
2018-06-02T02:07:04.754Z,19.33
2018-06-02T02:08:04.766Z,19.36
2018-06-02T02:09:57.832Z,19.44
2018-06-02T02:10:57.856Z,19.50
2018-06-02T02:12:50.788Z,19.43
2018-06-02T02:13:50.798Z,19.46
2018-06-02T02:15:43.727Z,19.47
2018-06-02T02:16:43.730Z,19.55
2018-06-02T02:18:36.647Z,19.48
2018-06-02T02:19:36.678Z,19.54
2018-06-02T02:21:29.606Z,19.56
2018-06-02T02:22:29.609Z,19.59
2018-06-02T02:24:22.560Z,19.59
2018-06-02T02:25:22.553Z,19.58
2018-06-02T02:27:15.492Z,19.55
2018-06-02T02:28:15.493Z,19.47
2018-06-02T02:30:08.404Z,19.59
2018-06-02T02:31:08.425Z,19.62
2018-06-02T02:33:01.361Z,19.66
2018-06-02T02:34:01.371Z,19.66
2018-06-02T02:35:54.299Z,19.68
2018-06-02T02:36:54.304Z,19.58
2018-06-02T02:38:47.241Z,19.54
2018-06-02T02:39:47.260Z,19.68
2018-06-02T02:41:40.199Z,19.55
2018-06-02T02:42:40.206Z,19.55
2018-06-02T02:44:33.273Z,19.59
2018-06-02T02:45:33.297Z,19.54
2018-06-02T02:47:26.233Z,19.46
2018-06-02T02:48:26.241Z,19.48
2018-06-02T02:50:19.147Z,19.39
2018-06-02T02:51:19.170Z,19.40
2018-06-02T02:53:12.104Z,19.39
2018-06-02T02:54:12.108Z,19.44
2018-06-02T02:56:05.044Z,19.39
2018-06-02T02:57:05.047Z,19.36
2018-06-02T02:58:57.960Z,19.36
2018-06-02T02:59:57.983Z,19.32
2018-06-02T03:01:50.928Z,19.33
2018-06-02T03:02:50.927Z,19.37
2018-06-02T03:04:44.047Z,19.46
2018-06-02T03:05:44.070Z,19.43
2018-06-02T03:07:37.006Z,19.50
2018-06-02T03:08:37.018Z,19.54
2018-06-02T03:10:29.931Z,19.54
2018-06-02T03:11:29.955Z,19.66
2018-06-02T03:13:22.897Z,19.68
2018-06-02T03:14:22.902Z,19.51
2018-06-02T03:16:15.994Z,19.55
2018-06-02T03:17:15.999Z,19.50
2018-06-02T03:19:08.912Z,19.48
2018-06-02T03:20:08.936Z,19.51
2018-06-02T03:22:01.873Z,19.40
2018-06-02T03:23:01.880Z,19.43
2018-06-02T03:24:54.790Z,19.46
2018-06-02T03:25:54.818Z,19.40
2018-06-02T03:27:47.750Z,19.47
2018-06-02T03:28:47.758Z,19.37
2018-06-02T03:30:40.670Z,19.44
2018-06-02T03:31:40.699Z,19.44
2018-06-02T03:33:33.628Z,19.55
2018-06-02T03:34:33.640Z,19.47
2018-06-02T03:36:26.564Z,19.54
2018-06-02T03:37:26.567Z,19.59
2018-06-02T03:39:19.485Z,19.55
2018-06-02T03:40:19.516Z,19.61
2018-06-02T03:42:12.442Z,19.54
2018-06-02T03:43:12.444Z,19.54
2018-06-02T03:45:05.366Z,19.59
2018-06-02T03:46:05.392Z,19.62
2018-06-02T03:47:58.367Z,19.73
2018-06-02T03:48:58.329Z,19.73
2018-06-02T03:50:51.245Z,19.73
2018-06-02T03:51:51.268Z,19.69
2018-06-02T03:53:44.200Z,19.69
2018-06-02T03:54:44.205Z,19.68
2018-06-02T03:56:37.139Z,19.58
2018-06-02T03:57:37.147Z,19.68
2018-06-02T03:59:31.062Z,19.68
2018-06-02T04:00:31.095Z,19.69
2018-06-02T04:02:24.019Z,19.83
2018-06-02T04:03:24.021Z,19.83
2018-06-02T04:05:16.941Z,19.86
2018-06-02T04:06:16.969Z,19.86
2018-06-02T04:08:09.894Z,19.91
2018-06-02T04:09:09.902Z,19.87
2018-06-02T04:11:02.820Z,19.95
2018-06-02T04:12:02.842Z,19.88
2018-06-02T04:13:55.786Z,19.87
2018-06-02T04:14:55.785Z,19.86
2018-06-02T04:16:48.729Z,19.74
2018-06-02T04:17:48.731Z,19.69
2018-06-02T04:19:41.711Z,19.77
2018-06-02T04:20:41.672Z,19.73
2018-06-02T04:22:34.605Z,19.71
2018-06-02T04:23:34.619Z,19.71
2018-06-02T04:25:27.525Z,19.59
2018-06-02T04:26:27.548Z,19.69
2018-06-02T04:28:20.482Z,19.71
2018-06-02T04:29:20.490Z,19.56
2018-06-02T04:31:13.408Z,19.50
2018-06-02T04:32:13.429Z,19.61
2018-06-02T04:34:06.365Z,19.56
2018-06-02T04:35:06.365Z,19.51
2018-06-02T04:36:59.309Z,19.51
2018-06-02T04:37:59.311Z,19.56
2018-06-02T04:39:52.225Z,19.61
2018-06-02T04:40:52.246Z,19.61
2018-06-02T04:42:45.183Z,19.76
2018-06-02T04:43:45.192Z,19.68
2018-06-02T04:45:38.101Z,19.91
2018-06-02T04:46:38.125Z,19.87
2018-06-02T04:48:31.061Z,19.83
2018-06-02T04:49:31.070Z,19.94
2018-06-02T04:51:23.981Z,19.88
2018-06-02T04:52:24.009Z,19.86
2018-06-02T04:54:16.939Z,19.80
2018-06-02T04:55:16.953Z,19.78
2018-06-02T04:57:09.912Z,19.74
2018-06-02T04:58:09.893Z,19.86
2018-06-02T05:00:02.803Z,19.81
2018-06-02T05:01:02.824Z,19.95
2018-06-02T05:02:55.770Z,19.95
2018-06-02T05:03:55.771Z,19.94
2018-06-02T05:05:48.689Z,19.87
2018-06-02T05:06:48.713Z,19.92
2018-06-02T05:08:41.648Z,19.95
2018-06-02T05:09:41.652Z,19.94
2018-06-02T05:11:34.569Z,19.98
2018-06-02T05:12:34.590Z,20.03
2018-06-02T05:14:28.522Z,20.14
2018-06-02T05:15:28.529Z,20.05
2018-06-02T05:17:21.470Z,20.05
2018-06-02T05:18:21.472Z,20.10
2018-06-02T05:20:14.385Z,20.17
2018-06-02T05:21:14.414Z,20.08
2018-06-02T05:23:07.344Z,20.01
2018-06-02T05:24:07.353Z,20.05
2018-06-02T05:26:00.269Z,20.01
2018-06-02T05:27:00.297Z,19.96
2018-06-02T05:28:53.238Z,19.65
2018-06-02T05:29:53.244Z,19.68
2018-06-02T05:31:46.172Z,19.43
2018-06-02T05:32:46.188Z,19.48
2018-06-02T05:34:39.123Z,19.50
2018-06-02T05:35:39.129Z,19.48
2018-06-02T05:37:32.133Z,19.55
2018-06-02T05:38:32.070Z,19.63
2018-06-02T05:40:25.042Z,19.68
2018-06-02T05:41:25.019Z,19.61
2018-06-02T05:43:17.954Z,19.66
2018-06-02T05:44:17.962Z,19.71
2018-06-02T05:46:10.876Z,19.68
2018-06-02T05:47:10.899Z,19.74
2018-06-02T05:49:03.838Z,19.91
2018-06-02T05:50:03.836Z,19.95
2018-06-02T05:51:56.755Z,19.98
2018-06-02T05:52:56.782Z,19.87
2018-06-02T05:54:49.721Z,19.69
2018-06-02T05:55:49.723Z,19.84
2018-06-02T05:57:42.659Z,19.83
2018-06-02T05:58:42.661Z,19.87
2018-06-02T06:00:35.574Z,19.96
2018-06-02T06:01:35.599Z,19.94
2018-06-02T06:03:28.538Z,19.95
2018-06-02T06:04:28.537Z,20.03
2018-06-02T06:06:21.459Z,20.14
2018-06-02T06:07:21.484Z,20.10
2018-06-02T06:09:14.446Z,20.02
2018-06-02T06:10:14.422Z,20.11
2018-06-02T06:12:07.342Z,20.10
2018-06-02T06:13:07.765Z,20.14
2018-06-02T06:15:00.527Z,20.13
2018-06-02T06:16:00.495Z,20.11
2018-06-02T06:17:53.437Z,20.14
2018-06-02T06:18:53.442Z,20.17
2018-06-02T06:20:46.357Z,20.16
2018-06-02T06:21:46.385Z,20.20
2018-06-02T06:23:39.318Z,20.20
2018-06-02T06:24:39.330Z,20.20
2018-06-02T06:26:32.241Z,20.33
2018-06-02T06:27:32.266Z,20.38
2018-06-02T06:29:25.219Z,20.31
2018-06-02T06:30:25.208Z,20.36
2018-06-02T06:32:18.136Z,20.28
2018-06-02T06:33:18.150Z,20.31
2018-06-02T06:35:11.085Z,20.42
2018-06-02T06:36:11.089Z,20.50
2018-06-02T06:38:04.025Z,20.50
2018-06-02T06:39:04.078Z,20.51
2018-06-02T06:40:56.943Z,20.51
2018-06-02T06:41:56.969Z,20.48
2018-06-02T06:43:49.903Z,20.55
2018-06-02T06:44:49.908Z,20.52
2018-06-02T06:46:42.829Z,20.52
2018-06-02T06:47:42.853Z,20.57
2018-06-02T06:49:35.787Z,20.43
2018-06-02T06:50:35.822Z,20.52
2018-06-02T06:52:28.708Z,20.51
2018-06-02T06:53:28.738Z,20.39
2018-06-02T06:55:21.669Z,20.31
2018-06-02T06:56:21.673Z,20.29
2018-06-02T06:58:14.610Z,20.20
2018-06-02T06:59:14.619Z,20.16
2018-06-02T07:01:07.529Z,20.13
2018-06-02T07:02:07.559Z,20.11
2018-06-02T07:04:00.490Z,20.11
2018-06-02T07:05:00.498Z,20.08
2018-06-02T07:06:53.411Z,20.13
2018-06-02T07:07:53.438Z,20.08
2018-06-02T07:09:46.380Z,20.17
2018-06-02T07:10:46.380Z,20.13
2018-06-02T07:12:39.296Z,20.36
2018-06-02T07:13:39.326Z,20.41
2018-06-02T07:15:32.276Z,20.47
2018-06-02T07:16:32.267Z,20.48
2018-06-02T07:18:25.201Z,20.50
2018-06-02T07:19:25.246Z,20.47
2018-06-02T07:21:18.123Z,20.41
2018-06-02T07:22:18.152Z,20.48
2018-06-02T07:24:11.084Z,20.42
2018-06-02T07:25:11.090Z,20.36
2018-06-02T07:27:04.005Z,20.43
2018-06-02T07:28:04.031Z,20.43
2018-06-02T07:29:56.969Z,20.42
2018-06-02T07:30:56.982Z,20.51
2018-06-02T07:32:49.892Z,20.47
2018-06-02T07:33:49.919Z,20.39
2018-06-02T07:35:42.853Z,20.29
2018-06-02T07:36:42.863Z,20.26
2018-06-02T07:38:35.817Z,20.28
2018-06-02T07:39:35.803Z,20.26
2018-06-02T07:41:28.719Z,20.31
2018-06-02T07:42:28.747Z,20.23
2018-06-02T07:44:21.821Z,20.20
2018-06-02T07:45:21.686Z,20.26
2018-06-02T07:47:14.604Z,20.16
2018-06-02T07:48:14.631Z,20.20
2018-06-02T07:50:07.600Z,20.23
2018-06-02T07:51:07.572Z,20.17
2018-06-02T07:53:00.487Z,20.20
2018-06-02T07:54:00.513Z,20.20
2018-06-02T07:55:53.445Z,20.32
2018-06-02T07:56:53.451Z,20.32
2018-06-02T07:58:46.607Z,20.31
2018-06-02T07:59:46.605Z,20.36
2018-06-02T08:01:39.526Z,20.47
2018-06-02T08:02:39.552Z,20.42
2018-06-02T08:04:32.490Z,20.57
2018-06-02T08:05:32.497Z,20.54
2018-06-02T08:07:25.420Z,20.58
2018-06-02T08:08:25.459Z,20.59
2018-06-02T08:10:18.413Z,20.67
2018-06-02T08:11:18.394Z,20.70
2018-06-02T08:13:11.312Z,20.85
2018-06-02T08:14:11.340Z,20.84
2018-06-02T08:16:04.272Z,20.82
2018-06-02T08:17:04.284Z,20.87
2018-06-02T08:18:57.228Z,20.58
2018-06-02T08:19:57.223Z,20.57
2018-06-02T08:21:50.135Z,20.58
2018-06-02T08:22:50.168Z,20.59
2018-06-02T08:24:43.097Z,20.57
2018-06-02T08:25:43.107Z,20.58
2018-06-02T08:27:36.026Z,20.61
2018-06-02T08:28:36.050Z,20.62
2018-06-02T08:30:28.986Z,20.57
2018-06-02T08:31:28.993Z,20.62
2018-06-02T08:33:21.916Z,20.72
2018-06-02T08:34:21.939Z,20.72
2018-06-02T08:36:14.869Z,20.73
2018-06-02T08:37:14.881Z,20.73
2018-06-02T08:39:07.787Z,20.74
2018-06-02T08:40:07.820Z,20.89
2018-06-02T08:42:00.754Z,20.87
2018-06-02T08:43:00.759Z,20.91
2018-06-02T08:44:53.694Z,21.14
2018-06-02T08:45:53.701Z,21.16
2018-06-02T08:47:46.623Z,21.19
2018-06-02T08:48:46.656Z,21.29
2018-06-02T08:50:39.583Z,21.35
2018-06-02T08:51:39.592Z,21.40
2018-06-02T08:53:32.505Z,21.42
2018-06-02T08:54:32.536Z,21.32
2018-06-02T08:56:25.477Z,21.28
2018-06-02T08:57:25.478Z,21.40
2018-06-02T08:59:18.394Z,21.40
2018-06-02T09:00:18.428Z,21.32
2018-06-02T09:02:11.378Z,21.47
2018-06-02T09:03:11.373Z,21.44
2018-06-02T09:05:04.321Z,21.56
2018-06-02T09:06:04.325Z,21.56
2018-06-02T09:07:57.244Z,21.72
2018-06-02T09:08:57.272Z,21.88
2018-06-02T09:10:51.382Z,22.03
2018-06-02T09:11:51.388Z,22.10
2018-06-02T09:13:44.311Z,22.18
2018-06-02T09:14:44.335Z,22.24
2018-06-02T09:16:37.283Z,22.36
2018-06-02T09:17:37.283Z,22.51
2018-06-02T09:19:30.206Z,22.58
2018-06-02T09:20:30.231Z,22.73
2018-06-02T09:22:23.172Z,22.91
2018-06-02T09:23:23.178Z,23.07
2018-06-02T09:25:16.127Z,23.20
2018-06-02T09:26:16.131Z,23.20
2018-06-02T09:28:09.058Z,23.31
2018-06-02T09:29:09.088Z,23.28
2018-06-02T09:31:02.037Z,23.09
2018-06-02T09:32:02.046Z,22.94
2018-06-02T09:33:54.967Z,22.76
2018-06-02T09:34:54.993Z,22.70
2018-06-02T09:36:47.935Z,22.55
2018-06-02T09:37:47.942Z,22.49
2018-06-02T09:39:40.866Z,22.43
2018-06-02T09:40:40.894Z,22.36
2018-06-02T09:42:33.834Z,22.22
2018-06-02T09:43:33.839Z,22.17
2018-06-02T09:45:26.949Z,22.18
2018-06-02T09:46:26.957Z,21.99
2018-06-02T09:48:19.907Z,22.09
2018-06-02T09:49:19.931Z,22.10
2018-06-02T09:51:12.883Z,22.22
2018-06-02T09:52:12.846Z,22.22
2018-06-02T09:54:05.831Z,22.25
2018-06-02T09:55:05.801Z,22.31
2018-06-02T09:56:58.748Z,22.33
2018-06-02T09:57:58.753Z,22.37
2018-06-02T09:59:51.688Z,22.52
2018-06-02T10:00:51.705Z,22.57
2018-06-02T10:02:44.644Z,22.62
2018-06-02T10:03:44.652Z,22.68
2018-06-02T10:05:37.606Z,22.91
2018-06-02T10:06:37.605Z,22.98
2018-06-02T10:08:30.532Z,23.35
2018-06-02T10:09:30.555Z,23.43
2018-06-02T10:11:23.497Z,23.55
2018-06-02T10:12:23.505Z,23.61
2018-06-02T10:14:16.921Z,23.69
2018-06-02T10:15:17.016Z,23.70
2018-06-02T10:17:09.902Z,23.94
2018-06-02T10:18:09.908Z,24.08
2018-06-02T10:20:02.834Z,24.06
2018-06-02T10:21:02.865Z,24.00
2018-06-02T10:22:55.813Z,24.20
2018-06-02T10:23:55.816Z,24.21
2018-06-02T10:25:48.766Z,24.28
2018-06-02T10:26:48.773Z,24.40
2018-06-02T10:28:41.711Z,24.31
2018-06-02T10:29:41.865Z,24.28
2018-06-02T10:31:34.686Z,24.37
2018-06-02T10:32:34.683Z,24.27
2018-06-02T10:34:27.614Z,24.42
2018-06-02T10:35:27.652Z,24.53
2018-06-02T10:37:21.858Z,24.43
2018-06-02T10:38:21.735Z,24.40
2018-06-02T10:40:14.679Z,24.25
2018-06-02T10:41:14.646Z,24.34
2018-06-02T10:43:07.634Z,23.70
2018-06-02T10:44:07.707Z,23.70
2018-06-02T10:46:00.811Z,23.66
2018-06-02T10:47:00.827Z,23.39
2018-06-02T10:48:53.752Z,23.20
2018-06-02T10:49:53.774Z,23.22
2018-06-02T10:51:46.723Z,23.19
2018-06-02T10:52:46.728Z,23.17
2018-06-02T10:54:39.701Z,23.05
2018-06-02T10:55:39.729Z,23.12
2018-06-02T10:57:32.707Z,22.92
2018-06-02T10:58:32.689Z,23.10
2018-06-02T11:00:25.617Z,22.98
2018-06-02T11:01:25.683Z,23.10
2018-06-02T11:03:18.617Z,23.23
2018-06-02T11:04:18.617Z,23.19
2018-06-02T11:06:11.558Z,23.13
2018-06-02T11:07:11.567Z,23.09
2018-06-02T11:09:04.546Z,22.90
2018-06-02T11:10:04.516Z,22.90
2018-06-02T11:11:57.467Z,23.12
2018-06-02T11:12:57.466Z,23.15
2018-06-02T11:14:50.409Z,23.17
2018-06-02T11:15:50.424Z,23.19
2018-06-02T11:17:43.371Z,23.23
2018-06-02T11:18:43.375Z,23.27
2018-06-02T11:20:36.298Z,23.36
2018-06-02T11:21:36.328Z,23.48
2018-06-02T11:23:30.256Z,23.47
2018-06-02T11:24:30.272Z,23.55
2018-06-02T11:26:23.207Z,23.72
2018-06-02T11:27:23.215Z,23.57
2018-06-02T11:29:16.140Z,23.57
2018-06-02T11:30:16.166Z,23.54
2018-06-02T11:32:09.107Z,23.65
2018-06-02T11:33:09.115Z,23.88
2018-06-02T11:35:02.046Z,23.84
2018-06-02T11:36:02.068Z,23.70
2018-06-02T11:37:55.014Z,23.58
2018-06-02T11:38:55.018Z,23.61
2018-06-02T11:40:47.940Z,23.72
2018-06-02T11:41:47.967Z,23.70
2018-06-02T11:43:40.917Z,23.93
2018-06-02T11:44:40.920Z,24.00
2018-06-02T11:46:33.872Z,24.22
2018-06-02T11:47:33.875Z,24.34
2018-06-02T11:49:26.860Z,24.32
2018-06-02T11:50:26.838Z,24.39
2018-06-02T11:52:19.781Z,24.25
2018-06-02T11:53:19.788Z,24.05
2018-06-02T11:55:12.710Z,23.87
2018-06-02T11:56:12.776Z,23.93
2018-06-02T11:58:05.698Z,23.88
2018-06-02T11:59:05.683Z,23.94
2018-06-02T12:00:58.610Z,23.93
2018-06-02T12:01:58.635Z,23.87
2018-06-02T12:03:51.581Z,23.84
2018-06-02T12:04:51.632Z,23.73
2018-06-02T12:06:44.537Z,23.83
2018-06-02T12:07:44.543Z,23.70
2018-06-02T12:09:37.465Z,23.69
2018-06-02T12:10:37.568Z,23.65
2018-06-02T12:12:30.661Z,23.54
2018-06-02T12:13:30.491Z,23.60
2018-06-02T12:15:23.431Z,23.53
2018-06-02T12:16:23.447Z,23.53
2018-06-02T12:18:16.396Z,23.53
2018-06-02T12:19:16.397Z,23.39
2018-06-02T12:21:09.376Z,23.40
2018-06-02T12:22:09.360Z,23.40
2018-06-02T12:24:02.303Z,23.23
2018-06-02T12:25:02.313Z,23.23
2018-06-02T12:26:55.251Z,23.31
2018-06-02T12:27:55.257Z,23.23
2018-06-02T12:29:48.184Z,23.31
2018-06-02T12:30:48.211Z,23.27
2018-06-02T12:32:41.153Z,23.40
2018-06-02T12:33:41.158Z,23.48
2018-06-02T12:35:34.089Z,23.51
2018-06-02T12:36:34.115Z,23.63
2018-06-02T12:38:27.060Z,23.76
2018-06-02T12:39:27.150Z,23.78
2018-06-02T12:41:19.999Z,23.94
2018-06-02T12:42:20.016Z,24.09
2018-06-02T12:44:12.980Z,24.24
2018-06-02T12:45:13.005Z,24.28
2018-06-02T12:47:05.991Z,24.27
2018-06-02T12:48:05.962Z,24.40
2018-06-02T12:49:58.846Z,24.49
2018-06-02T12:50:58.930Z,24.50
2018-06-02T12:52:51.831Z,24.57
2018-06-02T12:53:51.838Z,24.57
2018-06-02T12:55:44.789Z,24.58
2018-06-02T12:56:44.832Z,24.64
2018-06-02T12:58:37.820Z,24.50
2018-06-02T12:59:37.797Z,24.55
2018-06-02T13:01:30.707Z,24.49
2018-06-02T13:02:30.734Z,24.49
2018-06-02T13:04:23.695Z,24.53
2018-06-02T13:05:23.666Z,24.52
2018-06-02T13:07:16.693Z,24.58
2018-06-02T13:08:16.684Z,24.55
2018-06-02T13:10:09.556Z,24.47
2018-06-02T13:11:10.105Z,24.47
2018-06-02T13:13:03.622Z,24.43
2018-06-02T13:14:03.529Z,24.37
2018-06-02T13:15:56.527Z,24.42
2018-06-02T13:16:56.518Z,24.39
2018-06-02T13:18:49.496Z,24.25
2018-06-02T13:19:49.462Z,24.21
2018-06-02T13:21:42.390Z,24.34
2018-06-02T13:22:42.427Z,24.46
2018-06-02T13:24:35.330Z,24.49
2018-06-02T13:25:35.392Z,24.53
2018-06-02T13:27:28.356Z,24.57
2018-06-02T13:28:28.309Z,24.47
2018-06-02T13:30:21.243Z,24.55
2018-06-02T13:31:21.294Z,24.61
2018-06-02T13:33:14.292Z,24.47
2018-06-02T13:34:14.255Z,24.46
2018-06-02T13:36:07.642Z,24.37
2018-06-02T13:37:07.698Z,24.49
2018-06-02T13:39:00.646Z,24.35
2018-06-02T13:40:00.653Z,24.27
2018-06-02T13:41:53.569Z,24.39
2018-06-02T13:42:53.569Z,24.39
2018-06-02T13:44:46.815Z,24.55
2018-06-02T13:45:46.786Z,24.47
2018-06-02T13:47:39.736Z,24.45
2018-06-02T13:48:39.698Z,24.43
2018-06-02T13:50:32.632Z,24.42
2018-06-02T13:51:32.647Z,24.47
2018-06-02T13:53:25.682Z,24.52
2018-06-02T13:54:25.660Z,24.67
2018-06-02T13:56:18.555Z,24.84
2018-06-02T13:57:18.620Z,24.90
2018-06-02T13:59:11.501Z,25.17
2018-06-02T14:00:11.532Z,25.17
2018-06-02T14:02:04.440Z,25.28
2018-06-02T14:03:04.474Z,25.39
2018-06-02T14:04:57.477Z,25.50
2018-06-02T14:05:57.441Z,25.45
2018-06-02T14:07:50.466Z,25.30
2018-06-02T14:08:50.912Z,25.46
2018-06-02T14:10:43.352Z,25.24
2018-06-02T14:11:43.360Z,25.39
2018-06-02T14:13:36.299Z,25.43
2018-06-02T14:14:36.353Z,25.60
2018-06-02T14:16:29.322Z,25.80
2018-06-02T14:17:29.296Z,25.88
2018-06-02T14:19:22.259Z,25.95
2018-06-02T14:20:22.222Z,26.01
2018-06-02T14:22:15.199Z,25.92
2018-06-02T14:23:15.214Z,25.91
2018-06-02T14:25:08.158Z,25.95
2018-06-02T14:26:08.179Z,25.91
2018-06-02T14:28:01.174Z,25.87
2018-06-02T14:29:01.110Z,25.83
2018-06-02T14:30:54.049Z,25.67
2018-06-02T14:31:54.041Z,25.80
2018-06-02T14:33:47.634Z,25.62
2018-06-02T14:34:47.009Z,25.55
2018-06-02T14:36:39.953Z,25.52
2018-06-02T14:37:39.973Z,25.45
2018-06-02T14:39:33.209Z,25.30
2018-06-02T14:40:32.924Z,25.38
2018-06-02T14:42:25.866Z,25.30
2018-06-02T14:43:25.961Z,25.25
2018-06-02T14:45:18.833Z,25.30
2018-06-02T14:46:19.052Z,25.21
2018-06-02T14:48:12.172Z,25.10
2018-06-02T14:49:12.245Z,25.06
2018-06-02T14:51:05.249Z,25.13
2018-06-02T14:52:04.788Z,25.25
2018-06-02T14:53:58.041Z,25.28
2018-06-02T14:54:58.052Z,25.32
2018-06-02T14:56:51.004Z,25.36
2018-06-02T14:57:50.953Z,25.39
2018-06-02T14:59:43.960Z,25.32
2018-06-02T15:00:43.950Z,25.33
2018-06-02T15:02:36.962Z,25.09
2018-06-02T15:03:36.908Z,25.13
2018-06-02T15:05:30.657Z,24.93
2018-06-02T15:06:30.370Z,24.84
2018-06-02T15:08:24.426Z,25.10
2018-06-02T15:09:24.437Z,25.08
2018-06-02T15:11:20.432Z,25.13
2018-06-02T15:12:20.469Z,25.18
2018-06-02T15:14:13.534Z,25.27
2018-06-02T15:15:13.560Z,25.33
2018-06-02T15:17:06.543Z,25.32
2018-06-02T15:18:06.594Z,25.50
2018-06-02T15:19:59.880Z,25.35
2018-06-02T15:20:59.902Z,25.50
2018-06-02T15:22:52.852Z,25.28
2018-06-02T15:23:52.883Z,25.35
2018-06-02T15:25:45.960Z,25.35
2018-06-02T15:26:45.960Z,25.24
2018-06-02T15:28:39.520Z,25.57
2018-06-02T15:29:39.515Z,25.57
2018-06-02T15:31:32.451Z,25.61
2018-06-02T15:32:32.474Z,25.62
2018-06-02T15:34:25.428Z,25.80
2018-06-02T15:35:25.434Z,25.73
2018-06-02T15:37:18.368Z,25.64
2018-06-02T15:38:18.453Z,25.61
2018-06-02T15:40:11.830Z,25.69
2018-06-02T15:41:11.884Z,25.70
2018-06-02T15:43:04.822Z,25.65
2018-06-02T15:44:04.838Z,25.72
2018-06-02T15:45:57.827Z,25.62
2018-06-02T15:46:57.794Z,25.62
2018-06-02T15:48:50.744Z,25.70
2018-06-02T15:49:50.749Z,25.65
2018-06-02T15:51:44.747Z,25.75
2018-06-02T15:52:44.726Z,25.82
2018-06-02T15:54:37.794Z,26.02
2018-06-02T15:55:37.688Z,26.10
2018-06-02T15:57:30.647Z,26.01
2018-06-02T15:58:30.695Z,25.90
2018-06-02T16:00:23.627Z,25.77
2018-06-02T16:01:23.637Z,25.85
2018-06-02T16:03:16.706Z,25.90
2018-06-02T16:04:16.731Z,25.94
2018-06-02T16:06:09.710Z,25.92
2018-06-02T16:07:09.618Z,25.80
2018-06-02T16:09:02.562Z,25.82
2018-06-02T16:10:02.576Z,25.95
2018-06-02T16:11:55.499Z,26.10
2018-06-02T16:12:55.589Z,26.07
2018-06-02T16:14:48.480Z,25.85
2018-06-02T16:15:48.489Z,25.67
2018-06-02T16:17:41.444Z,25.42
2018-06-02T16:18:41.473Z,25.30
2018-06-02T16:20:34.426Z,25.40
2018-06-02T16:21:34.401Z,25.40
2018-06-02T16:23:27.327Z,25.30
2018-06-02T16:24:27.355Z,25.40
2018-06-02T16:26:20.323Z,25.47
2018-06-02T16:27:20.313Z,25.45
2018-06-02T16:29:13.254Z,25.62
2018-06-02T16:30:13.266Z,25.57
2018-06-02T16:32:06.191Z,25.38
2018-06-02T16:33:06.219Z,25.38
2018-06-02T16:34:59.669Z,25.46
2018-06-02T16:35:59.685Z,25.40
2018-06-02T16:37:52.619Z,25.27
2018-06-02T16:38:52.640Z,25.24
2018-06-02T16:40:45.585Z,25.17
2018-06-02T16:41:45.595Z,25.17
2018-06-02T16:43:38.518Z,25.13
2018-06-02T16:44:38.632Z,25.20
2018-06-02T16:46:31.533Z,25.28
2018-06-02T16:47:31.510Z,25.42
2018-06-02T16:49:24.462Z,25.60
2018-06-02T16:50:24.466Z,25.52
2018-06-02T16:52:17.385Z,25.57
2018-06-02T16:53:17.415Z,25.57
2018-06-02T16:55:10.489Z,25.45
2018-06-02T16:56:10.406Z,25.46
2018-06-02T16:58:03.340Z,25.28
2018-06-02T16:59:03.370Z,25.30
2018-06-02T17:00:56.320Z,25.38
2018-06-02T17:01:56.327Z,25.39
2018-06-02T17:03:49.270Z,25.51
2018-06-02T17:04:49.300Z,25.57
2018-06-02T17:06:42.291Z,25.45
2018-06-02T17:07:42.247Z,25.54
2018-06-02T17:09:37.859Z,25.58
2018-06-02T17:10:37.823Z,25.61
2018-06-02T17:12:30.835Z,25.60
2018-06-02T17:13:30.803Z,25.33
2018-06-02T17:15:23.829Z,25.18
2018-06-02T17:16:24.595Z,25.33
2018-06-02T17:18:16.769Z,25.17
2018-06-02T17:19:16.779Z,25.08
2018-06-02T17:21:09.719Z,25.10
2018-06-02T17:22:09.724Z,25.08
2018-06-02T17:24:02.653Z,24.99
2018-06-02T17:25:02.740Z,25.06
2018-06-02T17:26:55.631Z,25.05
2018-06-02T17:27:55.643Z,25.14
2018-06-02T17:29:48.593Z,25.05
2018-06-02T17:30:48.602Z,24.90
2018-06-02T17:32:41.532Z,24.68
2018-06-02T17:33:41.564Z,24.49
2018-06-02T17:35:34.512Z,24.42
2018-06-02T17:36:34.522Z,24.43
2018-06-02T17:38:27.444Z,24.31
2018-06-02T17:39:27.473Z,24.31
2018-06-02T17:41:20.944Z,24.32
2018-06-02T17:42:20.922Z,24.35
2018-06-02T17:44:13.941Z,24.45
2018-06-02T17:45:13.972Z,24.45
2018-06-02T17:47:07.019Z,24.27
2018-06-02T17:48:07.032Z,24.47
2018-06-02T17:50:00.080Z,24.53
2018-06-02T17:51:00.088Z,24.58
2018-06-02T17:52:53.519Z,24.87
2018-06-02T17:53:53.550Z,25.13
2018-06-02T17:55:56.497Z,25.54
2018-06-02T17:56:56.505Z,25.80
2018-06-02T17:58:49.432Z,26.23
2018-06-02T17:59:49.460Z,26.37
2018-06-02T18:01:42.424Z,26.51
2018-06-02T18:02:42.417Z,26.70
2018-06-02T18:04:35.374Z,27.00
2018-06-02T18:05:35.366Z,27.00
2018-06-02T18:07:28.295Z,27.22
2018-06-02T18:08:28.321Z,27.10
2018-06-02T18:10:21.266Z,26.62
2018-06-02T18:11:21.276Z,26.48
2018-06-02T18:13:14.206Z,26.15
2018-06-02T18:14:14.230Z,25.92
2018-06-02T18:16:07.178Z,25.88
2018-06-02T18:17:07.181Z,25.87
2018-06-02T18:19:00.165Z,25.79
2018-06-02T18:20:00.223Z,25.77
2018-06-02T18:21:53.141Z,25.69
2018-06-02T18:22:53.138Z,25.65
2018-06-02T18:24:46.082Z,25.80
2018-06-02T18:25:46.324Z,25.88
2018-06-02T18:27:39.246Z,25.90
2018-06-02T18:28:39.266Z,25.92
2018-06-02T18:30:32.208Z,26.06
2018-06-02T18:31:32.219Z,26.09
2018-06-02T18:33:25.149Z,26.05